Pagrindinis puslapis
METAR-TAF:

METAR-TAF

Oro uostai :

Mersing, Malaizija

platuma: 02-23-00N, ilguma: 103-51-34E, Aukštis: 3 m

Dabartinis oras

Ataskaita buvo paskelbta 34 minutes, ne 06:00 UTC
Vėjas 5 kt nuo kintamojo kryptimis
Temperatūra 32°C
Drėgmė 71%
Slėgis 1010 hPa
Matomumas: 9000 m
Mažai debesys ne aukštis 2000 ft
Išsisklaidę debesys ne aukštis 2500 ft

METAR: WMAU 260600Z VRB05KT 9000 FEW020 SCT025 32/26 Q1010

Laikas: 14:34 (06:34 UTC)


TAF: trūkstamas

Orai ataskaitas ir orų prognozės (METAR, TAF).

turimą stotys yra geltonos ir raudonos taškus žemėlapyje.

Perkelti pele per norėdami pamatyti stoties vardą.

Tada spustelėkite, norėdami matyti oro stebėjimo ir prognozės.

Norėdami pakeisti žemėlapį: spustelėkite ant žalios mygtukų su juodo kryžiaus žemyn,; žalią mygtuką su brūkšneliu, jei norite nutolinti; arba žalių rodyklių gretimoms žemėlapius.


METAR-TAF: